Crimora, Virginia
Current Conditions -  °F | °C
As of 4:35 AM on Saturday 20 Dec 2014 (Local Time) from KW13 Reporting Station
Clear Clear  
Wind Chill: 20°   Ceiling: Unl
Heat Index: 20°   Visibility: 10mi
Dew Point: 18°   Wind: 3mph
Humidity: 91%   Direction: 200°SSW
Pressure: 30.21"   Gusts: NA
Location:  38.15°N, 78.85°W
Report Text: KW13 200935Z AUTO 20003KT 10SM CLR M06/M08 A3021 RMK AO1 T10641076
Loading
Personal Weather Stations






























Interactive Weather Map New forecast layout! Learn more

10-Day Weather Forecast

Advertisements
Track Severe Weather on mobile